Time;durP1;ratioP1;P1;durP2;ratioP2;P2;SDS_P1;SDS_P2;PMS_P1;PMS_P2;Temp;Humidity;BMP_temperature;BMP_pressure;BME280_temperature;BME280_humidity;BME280_pressure;Samples;Min_cycle;Max_cycle;Signal;HPM_P1;HPM_P2
2022/02/03 00:04:35;;;;;;;;;;;;;;;;;;5094844;28;20379;-78
2022/02/03 00:07:06;;;;;;;;;;;;;;;;;;5094807;28;19957;-74
2022/02/03 00:10:03;;;;;;;;;;;;;;;;;;5094603;28;19920;-73
2022/02/03 00:26:13;;;;;;;;;;;;;;;;;;5094552;28;20352;-75
2022/02/03 00:28:44;;;;;;;;;;;;;;;;;;5094203;28;19916;-76
2022/02/03 00:31:27;;;;;;;;;;;;;;;;;;5094406;28;19912;-74
2022/02/03 00:34:09;;;;;;;;;;;;;;;;;;5094241;28;20383;-75
2022/02/03 00:37:14;;;;;;;;;;;;;;;;;;5094129;28;19912;-78
2022/02/03 00:50:31;;;;;;;;;;;;;;;;;;5094360;28;19923;-73
2022/02/03 00:52:58;;;;;;;;;;;;;;;;;;5093892;28;20402;-72
2022/02/03 00:55:23;;;;;;;;;;;;;;;;;;5093941;28;19927;-74
2022/02/03 00:57:51;;;;;;;;;;;;;;;;;;5093765;28;19920;-76
2022/02/03 01:00:17;;;;;;;;;;;;;;;;;;5094096;28;19916;-73
2022/02/03 01:02:44;;;;;;;;;;;;;;;;;;5093347;28;19924;-76
2022/02/03 01:05:09;;;;;;;;;;;;;;;;;;5093712;28;20375;-73
2022/02/03 01:07:36;;;;;;;;;;;;;;;;;;5093587;28;19922;-75
2022/02/03 01:10:09;;;;;;;;;;;;;;;;;;5093628;28;19926;-78
2022/02/03 01:44:45;;;;;;;;;;;;;;;;;;5097609;28;21906;-73
2022/02/03 01:47:25;;;;;;;;;;;;;;;;;;5097399;28;20076;-72
2022/02/03 01:52:31;;;;;;;;;;;;;;;;;;5097298;28;19959;-72
2022/02/03 01:54:57;;;;;;;;;;;;;;;;;;5097109;28;20010;-74
2022/02/03 01:57:27;;;;;;;;;;;;;;;;;;5097243;28;19923;-72
2022/02/03 01:59:59;;;;;;;;;;;;;;;;;;5097086;28;20253;-74
2022/02/03 02:02:30;;;;;;;;;;;;;;;;;;5095680;28;19970;-73
2022/02/03 02:04:56;;;;;;;;;;;;;;;;;;5097189;28;19916;-77
2022/02/03 02:07:40;;;;;;;;;;;;;;;;;;5097141;28;20011;-76
2022/02/03 02:13:25;;;;;;;;;;;;;;;;;;5097327;28;19923;-75
2022/02/03 02:43:55;;;;;;;;;;;;;;;;;;5083585;28;19920;-73
2022/02/03 02:46:23;;;;;;;;;;;;;;;;;;5093909;28;19969;-72
2022/02/03 02:48:51;;;;;;;;;;;;;;;;;;5096150;28;19921;-72
2022/02/03 02:51:23;;;;;;;;;;;;;;;;;;5096134;28;20390;-73
2022/02/03 02:54:09;;;;;;;;;;;;;;;;;;5095873;28;19924;-76
2022/02/03 02:59:31;;;;;;;;;;;;;;;;;;5096024;28;20079;-77
2022/02/03 03:02:49;;;;;;;;;;;;;;;;;;5096468;28;20275;-73
2022/02/03 03:29:54;;;;;;;;;;;;;;;;;;5095455;28;19954;-76
2022/02/03 03:32:45;;;;;;;;;;;;;;;;;;5095167;28;19916;-73
2022/02/03 03:37:49;;;;;;;;;;;;;;;;;;5095128;28;19916;-77
2022/02/03 03:40:15;;;;;;;;;;;;;;;;;;5095236;28;20006;-73
2022/02/03 03:42:45;;;;;;;;;;;;;;;;;;5095003;28;20011;-77
2022/02/03 03:45:11;;;;;;;;;;;;;;;;;;5094713;28;19916;-77
2022/02/03 03:47:37;;;;;;;;;;;;;;;;;;5094942;28;20015;-72
2022/02/03 03:50:12;;;;;;;;;;;;;;;;;;5095312;28;19989;-73
2022/02/03 03:52:49;;;;;;;;;;;;;;;;;;5094624;28;19912;-73
2022/02/03 03:58:13;;;;;;;;;;;;;;;;;;5094789;28;19919;-77
2022/02/03 05:00:28;;;;;;;;;;;;;;;;;;5093817;28;19916;-73
2022/02/03 05:09:41;;;;;;;;;;;;;;;;;;5093492;28;20350;-77
2022/02/03 05:12:11;;;;;;;;;;;;;;;;;;5093559;28;19916;-73
2022/02/03 05:51:17;;;;;;;;;;;;;;;;;;5081738;28;20396;-76
2022/02/03 06:04:48;;;;;;;;;;;;;;;;;;5072952;28;20398;-73
2022/02/03 06:07:38;;;;;;;;;;;;;;;;;;5073341;28;19927;-72
2022/02/03 06:12:57;;;;;;;;;;;;;;;;;;5074542;28;20295;-77
2022/02/03 06:21:13;;;;;;;;;;;;;;;;;;5094835;28;19923;-76
2022/02/03 06:23:42;;;;;;;;;;;;;;;;;;5096582;28;19916;-77
2022/02/03 06:29:02;;;;;;;;;;;;;;;;;;5076635;28;19990;-78
2022/02/03 06:31:28;;;;;;;;;;;;;;;;;;5076347;28;19952;-74
2022/02/03 06:33:54;;;;;;;;;;;;;;;;;;5076258;28;19947;-78
2022/02/03 06:36:20;;;;;;;;;;;;;;;;;;5076060;28;19917;-75
2022/02/03 06:38:45;;;;;;;;;;;;;;;;;;5076131;28;20366;-77
2022/02/03 06:41:10;;;;;;;;;;;;;;;;;;5076210;28;19922;-77
2022/02/03 06:43:36;;;;;;;;;;;;;;;;;;5075971;28;19970;-72
2022/02/03 06:46:06;;;;;;;;;;;;;;;;;;5075902;28;20007;-77
2022/02/03 06:48:33;;;;;;;;;;;;;;;;;;5075899;28;20006;-78
2022/02/03 06:51:07;;;;;;;;;;;;;;;;;;5076075;28;19917;-79
2022/02/03 06:53:37;;;;;;;;;;;;;;;;;;5075722;28;19981;-79
2022/02/03 06:56:09;;;;;;;;;;;;;;;;;;5075824;28;20412;-78
2022/02/03 06:58:43;;;;;;;;;;;;;;;;;;5075384;28;20451;-79
2022/02/03 07:01:19;;;;;;;;;;;;;;;;;;5076015;28;19917;-79
2022/02/03 07:03:53;;;;;;;;;;;;;;;;;;5075648;28;20061;-79
2022/02/03 07:06:18;;;;;;;;;;;;;;;;;;5075628;28;19916;-77
2022/02/03 07:08:46;;;;;;;;;;;;;;;;;;5075541;28;19939;-78
2022/02/03 07:11:12;;;;;;;;;;;;;;;;;;5075544;28;19923;-79
2022/02/03 07:13:38;;;;;;;;;;;;;;;;;;5075506;28;19923;-78
2022/02/03 07:16:03;;;;;;;;;;;;;;;;;;5075595;28;20275;-78
2022/02/03 07:18:29;;;;;;;;;;;;;;;;;;5073764;28;19931;-78
2022/02/03 07:20:54;;;;;;;;;;;;;;;;;;5075333;28;19952;-76
2022/02/03 07:23:19;;;;;;;;;;;;;;;;;;5075396;28;19963;-74
2022/02/03 07:25:45;;;;;;;;;;;;;;;;;;5073873;28;19916;-76
2022/02/03 07:28:12;;;;;;;;;;;;;;;;;;5075234;28;20351;-76
2022/02/03 07:30:37;;;;;;;;;;;;;;;;;;5074771;28;19916;-76
2022/02/03 07:33:04;;;;;;;;;;;;;;;;;;5074984;28;19917;-75
2022/02/03 07:35:32;;;;;;;;;;;;;;;;;;5075006;28;19917;-77
2022/02/03 07:38:00;;;;;;;;;;;;;;;;;;5074772;28;19916;-78
2022/02/03 07:40:26;;;;;;;;;;;;;;;;;;5074948;28;19924;-76
2022/02/03 07:42:53;;;;;;;;;;;;;;;;;;5075132;28;20222;-77
2022/02/03 07:45:20;;;;;;;;;;;;;;;;;;5074741;28;19923;-75
2022/02/03 07:47:49;;;;;;;;;;;;;;;;;;5074767;28;19916;-79
2022/02/03 07:50:16;;;;;;;;;;;;;;;;;;5074718;28;19919;-75
2022/02/03 07:52:42;;;;;;;;;;;;;;;;;;5076676;28;19994;-78
2022/02/03 07:55:07;;;;;;;;;;;;;;;;;;5074790;28;19987;-74
2022/02/03 07:57:33;;;;;;;;;;;;;;;;;;5075734;28;20458;-76
2022/02/03 07:59:58;;;;;;;;;;;;;;;;;;5074695;28;19920;-75
2022/02/03 08:02:24;;;;;;;;;;;;;;;;;;5074519;28;19997;-76
2022/02/03 08:04:51;;;;;;;;;;;;;;;;;;5074178;28;19924;-74
2022/02/03 08:07:19;;;;;;;;;;;;;;;;;;5074481;28;19983;-72
2022/02/03 08:09:59;;;;;;;;;;;;;;;;;;5073004;28;19917;-74
2022/02/03 08:12:30;;;;;;;;;;;;;;;;;;5074410;28;19917;-72
2022/02/03 08:14:57;;;;;;;;;;;;;;;;;;5074274;28;19913;-74
2022/02/03 08:17:36;;;;;;;;;;;;;;;;;;5074287;28;20287;-77
2022/02/03 08:20:10;;;;;;;;;;;;;;;;;;5074143;28;19913;-75
2022/02/03 08:22:42;;;;;;;;;;;;;;;;;;5074199;28;19920;-73
2022/02/03 08:25:16;;;;;;;;;;;;;;;;;;5075767;27;19916;-77
2022/02/03 08:30:31;;;;;;;;;;;;;;;;;;5074041;28;19916;-76
2022/02/03 08:32:59;;;;;;;;;;;;;;;;;;5074004;28;20015;-76
2022/02/03 08:40:29;;;;;;;;;;;;;;;;;;5073829;28;19956;-74
2022/02/03 08:42:55;;;;;;;;;;;;;;;;;;5073177;28;19917;-72
2022/02/03 08:45:20;;;;;;;;;;;;;;;;;;5073821;28;19962;-72
2022/02/03 08:47:46;;;;;;;;;;;;;;;;;;5073816;28;19920;-77
2022/02/03 08:50:11;;;;;;;;;;;;;;;;;;5073859;28;19914;-74
2022/02/03 08:52:55;;;;;;;;;;;;;;;;;;5075252;28;19987;-78
2022/02/03 08:55:41;;;;;;;;;;;;;;;;;;5073726;28;19916;-77
2022/02/03 09:28:12;;;;;;;;;;;;;;;;;;5086122;28;20335;-76
2022/02/03 09:39:01;;;;;;;;;;;;;;;;;;5093270;28;19955;-77
2022/02/03 09:50:32;;;;;;;;;;;;;;;;;;5077173;28;19927;-78
2022/02/03 10:00:16;;;;;;;;;;;;;;;;;;5078620;28;19927;-75
2022/02/03 10:02:54;;;;;;;;;;;;;;;;;;5086378;28;19920;-78
2022/02/03 10:05:31;;;;;;;;;;;;;;;;;;5084812;28;20045;-79
2022/02/03 10:07:56;;;;;;;;;;;;;;;;;;5085329;28;20379;-76
2022/02/03 10:10:22;;;;;;;;;;;;;;;;;;5096926;28;19920;-74
2022/02/03 10:12:51;;;;;;;;;;;;;;;;;;5096870;28;20346;-74
2022/02/03 10:15:20;;;;;;;;;;;;;;;;;;5096860;28;20017;-76
2022/02/03 10:17:47;;;;;;;;;;;;;;;;;;5096660;28;19915;-75
2022/02/03 10:20:15;;;;;;;;;;;;;;;;;;5096446;28;19934;-76
2022/02/03 10:22:48;;;;;;;;;;;;;;;;;;5096597;28;19916;-75
2022/02/03 10:25:17;;;;;;;;;;;;;;;;;;5096648;28;20018;-76
2022/02/03 10:27:44;;;;;;;;;;;;;;;;;;5096537;28;19920;-78
2022/02/03 10:30:11;;;;;;;;;;;;;;;;;;5096588;28;20319;-78
2022/02/03 10:32:43;;;;;;;;;;;;;;;;;;5095204;28;19942;-78
2022/02/03 10:35:15;;;;;;;;;;;;;;;;;;5085232;28;19982;-76
2022/02/03 10:37:44;;;;;;;;;;;;;;;;;;5095083;28;20014;-76
2022/02/03 10:40:44;;;;;;;;;;;;;;;;;;5096036;28;19938;-77
2022/02/03 10:51:30;;;;;;;;;;;;;;;;;;5087096;28;20334;-77
2022/02/03 10:54:13;;;;;;;;;;;;;;;;;;5075691;28;20011;-75
2022/02/03 11:07:39;;;;;;;;;;;;;;;;;;5086662;28;20386;-75
2022/02/03 11:10:50;;;;;;;;;;;;;;;;;;5080220;28;20030;-75
2022/02/03 11:12:54;;;;;;;;;;;;;;;;;;5074401;28;19924;-73
2022/02/03 11:15:24;;;;;;;;;;;;;;;;;;5081528;28;19931;-76
2022/02/03 11:17:50;;;;;;;;;;;;;;;;;;5080952;28;19974;-73
2022/02/03 11:20:20;;;;;;;;;;;;;;;;;;5082710;28;20020;-77
2022/02/03 11:22:58;;;;;;;;;;;;;;;;;;5082656;28;19920;-77
2022/02/03 11:39:10;;;;;;;;;;;;;;;;;;5086015;28;19965;-78
2022/02/03 11:45:11;;;;;;;;;;;;;;;;;;5078513;28;19920;-77
2022/02/03 11:58:08;;;;;;;;;;;;;;;;;;5079824;28;19928;-73
2022/02/03 12:00:56;;;;;;;;;;;;;;;;;;5079218;28;19924;-76
2022/02/03 12:04:12;;;;;;;;;;;;;;;;;;5082108;28;19927;-73
2022/02/03 12:07:07;;;;;;;;;;;;;;;;;;5083024;28;19920;-78
2022/02/03 12:15:31;;;;;;;;;;;;;;;;;;5074206;28;19916;-74
2022/02/03 12:17:58;;;;;;;;;;;;;;;;;;5074017;28;19959;-77
2022/02/03 12:20:34;;;;;;;;;;;;;;;;;;5073947;28;19916;-78
2022/02/03 12:23:11;;;;;;;;;;;;;;;;;;5078582;28;20444;-78
2022/02/03 12:26:05;;;;;;;;;;;;;;;;;;5077821;28;19928;-73
2022/02/03 12:28:50;;;;;;;;;;;;;;;;;;5080584;28;19919;-75
2022/02/03 12:38:58;;;;;;;;;;;;;;;;;;5083928;28;20425;-76
2022/02/03 12:41:38;;;;;;;;;;;;;;;;;;5095624;28;19916;-76
2022/02/03 12:44:17;;;;;;;;;;;;;;;;;;5082880;28;19927;-76
2022/02/03 12:46:43;;;;;;;;;;;;;;;;;;5078644;28;19920;-73
2022/02/03 12:49:17;;;;;;;;;;;;;;;;;;5079004;28;19927;-72
2022/02/03 12:51:43;;;;;;;;;;;;;;;;;;5077265;28;20007;-74
2022/02/03 12:54:12;;;;;;;;;;;;;;;;;;5077954;28;20027;-74
2022/02/03 12:56:38;;;;;;;;;;;;;;;;;;5080054;28;19920;-73
2022/02/03 12:59:09;;;;;;;;;;;;;;;;;;5077358;28;20374;-74
2022/02/03 13:01:39;;;;;;;;;;;;;;;;;;5080001;28;19920;-73
2022/02/03 13:04:11;;;;;;;;;;;;;;;;;;5086428;28;19920;-73
2022/02/03 13:06:42;;;;;;;;;;;;;;;;;;5073730;28;20326;-79
2022/02/03 13:09:09;;;;;;;;;;;;;;;;;;5080334;28;19920;-74
2022/02/03 13:11:51;;;;;;;;;;;;;;;;;;5083891;28;20015;-74
2022/02/03 13:17:00;;;;;;;;;;;;;;;;;;5077135;28;19916;-74
2022/02/03 13:27:30;;;;;;;;;;;;;;;;;;5083744;28;19927;-77
2022/02/03 13:30:04;;;;;;;;;;;;;;;;;;5084873;28;19924;-75
2022/02/03 13:32:43;;;;;;;;;;;;;;;;;;5085030;28;19926;-74
2022/02/03 13:35:22;;;;;;;;;;;;;;;;;;5067888;28;20308;-76
2022/02/03 13:37:53;;;;;;;;;;;;;;;;;;5084006;28;19925;-77
2022/02/03 13:40:20;;;;;;;;;;;;;;;;;;5082267;28;20439;-75
2022/02/03 13:42:50;;;;;;;;;;;;;;;;;;5084805;28;19924;-75
2022/02/03 13:45:18;;;;;;;;;;;;;;;;;;5081699;28;20283;-74
2022/02/03 13:47:46;;;;;;;;;;;;;;;;;;5080460;28;20279;-75
2022/02/03 13:50:20;;;;;;;;;;;;;;;;;;5080661;28;19916;-76
2022/02/03 13:52:51;;;;;;;;;;;;;;;;;;5082278;28;19920;-73
2022/02/03 14:13:27;;;;;;;;;;;;;;;;;;5077492;28;19986;-73
2022/02/03 14:20:45;;;;;;;;;;;;;;;;;;5086305;28;19923;-74
2022/02/03 14:28:30;;;;;;;;;;;;;;;;;;5077584;28;20340;-74
2022/02/03 14:30:59;;;;;;;;;;;;;;;;;;5085935;28;19916;-76
2022/02/03 14:33:29;;;;;;;;;;;;;;;;;;5085019;28;19920;-73
2022/02/03 14:36:04;;;;;;;;;;;;;;;;;;5082136;28;19916;-74
2022/02/03 14:38:35;;;;;;;;;;;;;;;;;;5082685;28;20019;-73
2022/02/03 14:41:13;;;;;;;;;;;;;;;;;;5082885;28;19919;-74
2022/02/03 14:43:40;;;;;;;;;;;;;;;;;;5075818;28;19923;-74
2022/02/03 14:46:11;;;;;;;;;;;;;;;;;;5080541;28;19920;-74
2022/02/03 14:48:38;;;;;;;;;;;;;;;;;;5088621;28;19924;-73
2022/02/03 14:51:05;;;;;;;;;;;;;;;;;;5086063;28;19939;-74
2022/02/03 14:53:48;;;;;;;;;;;;;;;;;;5087185;28;19943;-74
2022/02/03 14:58:57;;;;;;;;;;;;;;;;;;5080270;28;20031;-74
2022/02/03 15:01:23;;;;;;;;;;;;;;;;;;5080853;28;20019;-74
2022/02/03 15:03:55;;;;;;;;;;;;;;;;;;5086862;28;19970;-73
2022/02/03 15:06:24;;;;;;;;;;;;;;;;;;5075832;28;20452;-74
2022/02/03 15:09:14;;;;;;;;;;;;;;;;;;5080218;28;19947;-77
2022/02/03 15:11:56;;;;;;;;;;;;;;;;;;5081240;28;20015;-73
2022/02/03 15:14:21;;;;;;;;;;;;;;;;;;5082811;28;19930;-74
2022/02/03 15:16:47;;;;;;;;;;;;;;;;;;5080573;28;20264;-73
2022/02/03 15:19:12;;;;;;;;;;;;;;;;;;5079264;28;19928;-73
2022/02/03 15:21:38;;;;;;;;;;;;;;;;;;5079136;28;19958;-75
2022/02/03 15:24:04;;;;;;;;;;;;;;;;;;5080923;28;20003;-77
2022/02/03 15:26:30;;;;;;;;;;;;;;;;;;5084426;28;20004;-77
2022/02/03 15:28:56;;;;;;;;;;;;;;;;;;5084294;28;19939;-73
2022/02/03 15:31:27;;;;;;;;;;;;;;;;;;5088256;28;19931;-76
2022/02/03 15:33:58;;;;;;;;;;;;;;;;;;5079524;28;19974;-76
2022/02/03 15:36:23;;;;;;;;;;;;;;;;;;5079802;28;19929;-74
2022/02/03 15:38:49;;;;;;;;;;;;;;;;;;5079416;28;19935;-74
2022/02/03 15:41:23;;;;;;;;;;;;;;;;;;5078757;28;20162;-76
2022/02/03 15:43:50;;;;;;;;;;;;;;;;;;5078361;28;19927;-74
2022/02/03 15:46:18;;;;;;;;;;;;;;;;;;5081102;28;19971;-76
2022/02/03 15:48:59;;;;;;;;;;;;;;;;;;5077751;28;19924;-76
2022/02/03 15:57:02;;;;;;;;;;;;;;;;;;5082512;28;19993;-78
2022/02/03 16:18:10;;;;;;;;;;;;;;;;;;5083840;28;20414;-75
2022/02/03 16:20:43;;;;;;;;;;;;;;;;;;5080656;28;19928;-75
2022/02/03 16:26:27;;;;;;;;;;;;;;;;;;5080882;28;20020;-76
2022/02/03 16:50:32;;;;;;;;;;;;;;;;;;5073952;28;19966;-73
2022/02/03 16:52:59;;;;;;;;;;;;;;;;;;5079744;28;20292;-77
2022/02/03 16:55:31;;;;;;;;;;;;;;;;;;5084727;28;19924;-74
2022/02/03 16:57:57;;;;;;;;;;;;;;;;;;5087558;28;19983;-75
2022/02/03 17:00:24;;;;;;;;;;;;;;;;;;5076665;28;19928;-77
2022/02/03 17:02:51;;;;;;;;;;;;;;;;;;5078758;28;19928;-73
2022/02/03 17:05:16;;;;;;;;;;;;;;;;;;5078412;28;19920;-76
2022/02/03 17:07:42;;;;;;;;;;;;;;;;;;5086953;28;19984;-77
2022/02/03 17:10:08;;;;;;;;;;;;;;;;;;5084678;28;19928;-77
2022/02/03 17:12:33;;;;;;;;;;;;;;;;;;5084299;28;19928;-75
2022/02/03 17:14:58;;;;;;;;;;;;;;;;;;5087087;28;19920;-75
2022/02/03 17:17:25;;;;;;;;;;;;;;;;;;5085049;28;19924;-76
2022/02/03 17:19:51;;;;;;;;;;;;;;;;;;5079522;28;19946;-77
2022/02/03 17:22:20;;;;;;;;;;;;;;;;;;5082311;28;20262;-76
2022/02/03 17:25:02;;;;;;;;;;;;;;;;;;5085381;28;19986;-77
2022/02/03 17:27:54;;;;;;;;;;;;;;;;;;5090284;28;19917;-76
2022/02/03 17:30:22;;;;;;;;;;;;;;;;;;5089731;28;19923;-77
2022/02/03 18:30:04;;;;;;;;;;;;;;;;;;5096671;28;20384;-78
2022/02/03 18:32:42;;;;;;;;;;;;;;;;;;5090176;28;19936;-76
2022/02/03 18:51:16;;;;;;;;;;;;;;;;;;5068314;28;19970;-77
2022/02/03 18:53:56;;;;;;;;;;;;;;;;;;5067230;28;19924;-77
2022/02/03 18:56:39;;;;;;;;;;;;;;;;;;5066410;28;19954;-77
2022/02/03 19:09:34;;;;;;;;;;;;;;;;;;5064648;28;19928;-75
2022/02/03 19:13:27;;;;;;;;;;;;;;;;;;5069786;28;20344;-78
2022/02/03 19:26:45;;;;;;;;;;;;;;;;;;5086434;28;19942;-77
2022/02/03 20:01:51;;;;;;;;;;;;;;;;;;5083664;28;20006;-77
2022/02/03 20:06:57;;;;;;;;;;;;;;;;;;5083769;28;20345;-77
2022/02/03 20:09:53;;;;;;;;;;;;;;;;;;5075878;28;20010;-77
2022/02/03 20:12:14;;;;;;;;;;;;;;;;;;5080741;28;20007;-76
2022/02/03 20:14:39;;;;;;;;;;;;;;;;;;5084169;28;19958;-77
2022/02/03 20:17:05;;;;;;;;;;;;;;;;;;5080608;28;19920;-75
2022/02/03 20:19:30;;;;;;;;;;;;;;;;;;5081794;28;19920;-76
2022/02/03 20:21:56;;;;;;;;;;;;;;;;;;5081009;28;20388;-76
2022/02/03 20:24:21;;;;;;;;;;;;;;;;;;5091557;28;20372;-76
2022/02/03 20:26:47;;;;;;;;;;;;;;;;;;5093818;28;19916;-76
2022/02/03 20:29:12;;;;;;;;;;;;;;;;;;5094368;28;19927;-77
2022/02/03 20:31:38;;;;;;;;;;;;;;;;;;5094197;28;19919;-77
2022/02/03 20:34:04;;;;;;;;;;;;;;;;;;5094331;28;20356;-78
2022/02/03 20:36:29;;;;;;;;;;;;;;;;;;5094236;28;19923;-77
2022/02/03 20:38:55;;;;;;;;;;;;;;;;;;5082304;28;19920;-76
2022/02/03 20:41:21;;;;;;;;;;;;;;;;;;5077274;28;20054;-76
2022/02/03 20:43:46;;;;;;;;;;;;;;;;;;5077791;28;19924;-75
2022/02/03 20:46:12;;;;;;;;;;;;;;;;;;5077929;28;19973;-76
2022/02/03 20:48:45;;;;;;;;;;;;;;;;;;5083108;28;19920;-79
2022/02/03 20:51:14;;;;;;;;;;;;;;;;;;5078622;28;20403;-76
2022/02/03 20:53:40;;;;;;;;;;;;;;;;;;5077566;28;20387;-76
2022/02/03 20:56:06;;;;;;;;;;;;;;;;;;5076843;28;19959;-78
2022/02/03 20:58:32;;;;;;;;;;;;;;;;;;5081875;28;19931;-76
2022/02/03 21:01:04;;;;;;;;;;;;;;;;;;5083834;28;19970;-76
2022/02/03 21:03:39;;;;;;;;;;;;;;;;;;5081079;28;19943;-75
2022/02/03 21:06:04;;;;;;;;;;;;;;;;;;5091213;28;19969;-74
2022/02/03 21:08:33;;;;;;;;;;;;;;;;;;5086486;28;19920;-77
2022/02/03 21:10:58;;;;;;;;;;;;;;;;;;5087479;28;19942;-74
2022/02/03 21:13:24;;;;;;;;;;;;;;;;;;5089704;28;19916;-78
2022/02/03 21:15:51;;;;;;;;;;;;;;;;;;5085193;28;19920;-78
2022/02/03 21:18:17;;;;;;;;;;;;;;;;;;5086844;28;20325;-77
2022/02/03 21:20:43;;;;;;;;;;;;;;;;;;5079889;28;19928;-76
2022/02/03 21:23:09;;;;;;;;;;;;;;;;;;5084814;28;19924;-75
2022/02/03 21:25:41;;;;;;;;;;;;;;;;;;5081746;28;19920;-76
2022/02/03 21:28:12;;;;;;;;;;;;;;;;;;5076169;28;19935;-76
2022/02/03 21:30:37;;;;;;;;;;;;;;;;;;5078395;28;19916;-74
2022/02/03 21:33:03;;;;;;;;;;;;;;;;;;5085039;28;20426;-74
2022/02/03 21:35:29;;;;;;;;;;;;;;;;;;5089244;28;19951;-77
2022/02/03 21:37:55;;;;;;;;;;;;;;;;;;5089846;28;19959;-77
2022/02/03 21:40:21;;;;;;;;;;;;;;;;;;5088970;28;19943;-74
2022/02/03 21:42:47;;;;;;;;;;;;;;;;;;5084568;28;19916;-77
2022/02/03 21:45:16;;;;;;;;;;;;;;;;;;5078821;28;19920;-76
2022/02/03 21:47:42;;;;;;;;;;;;;;;;;;5078759;28;20364;-74
2022/02/03 21:50:07;;;;;;;;;;;;;;;;;;5090433;28;19920;-75
2022/02/03 21:52:37;;;;;;;;;;;;;;;;;;5095798;28;19924;-74
2022/02/03 21:55:03;;;;;;;;;;;;;;;;;;5096090;28;19924;-74
2022/02/03 21:57:29;;;;;;;;;;;;;;;;;;5088998;28;19946;-73
2022/02/03 21:59:56;;;;;;;;;;;;;;;;;;5087030;28;19927;-73
2022/02/03 22:02:21;;;;;;;;;;;;;;;;;;5080480;28;19923;-74
2022/02/03 22:04:47;;;;;;;;;;;;;;;;;;5092238;28;20304;-76
2022/02/03 22:07:12;;;;;;;;;;;;;;;;;;5090079;28;19928;-74
2022/02/03 22:09:39;;;;;;;;;;;;;;;;;;5089435;28;19929;-74
2022/02/03 22:12:05;;;;;;;;;;;;;;;;;;5093475;28;19966;-75
2022/02/03 22:14:31;;;;;;;;;;;;;;;;;;5093994;28;19947;-75
2022/02/03 22:16:59;;;;;;;;;;;;;;;;;;5094570;28;19916;-76
2022/02/03 22:19:24;;;;;;;;;;;;;;;;;;5096805;28;20014;-78
2022/02/03 22:22:09;;;;;;;;;;;;;;;;;;5096752;28;19958;-77
2022/02/03 22:24:46;;;;;;;;;;;;;;;;;;5096736;28;19916;-74
2022/02/03 22:43:48;;;;;;;;;;;;;;;;;;5096745;28;20020;-74
2022/02/03 22:46:22;;;;;;;;;;;;;;;;;;5096298;28;19927;-75
2022/02/03 22:48:48;;;;;;;;;;;;;;;;;;5095989;28;20322;-74
2022/02/03 22:51:13;;;;;;;;;;;;;;;;;;5096506;28;19927;-76
2022/02/03 22:53:40;;;;;;;;;;;;;;;;;;5096072;28;19963;-77
2022/02/03 22:56:07;;;;;;;;;;;;;;;;;;5096354;28;20386;-75
2022/02/03 23:01:09;;;;;;;;;;;;;;;;;;5095830;28;19955;-74
2022/02/03 23:03:35;;;;;;;;;;;;;;;;;;5095175;28;19916;-75
2022/02/03 23:06:01;;;;;;;;;;;;;;;;;;5095996;28;20057;-74
2022/02/03 23:09:17;;;;;;;;;;;;;;;;;;5094303;28;19920;-76
2022/02/03 23:11:29;;;;;;;;;;;;;;;;;;5091818;28;19920;-73
2022/02/03 23:19:15;;;;;;;;;;;;;;;;;;5095729;28;19920;-74
2022/02/03 23:24:03;;;;;;;;;;;;;;;;;;5095940;28;19920;-74
2022/02/03 23:26:29;;;;;;;;;;;;;;;;;;5095591;28;19916;-73
2022/02/03 23:29:02;;;;;;;;;;;;;;;;;;5095177;28;19920;-73
2022/02/03 23:31:29;;;;;;;;;;;;;;;;;;5095713;28;19916;-74
2022/02/03 23:33:54;;;;;;;;;;;;;;;;;;5096442;28;19924;-72
2022/02/03 23:36:20;;;;;;;;;;;;;;;;;;5101336;28;19921;-73
2022/02/03 23:38:54;;;;;;;;;;;;;;;;;;5102939;28;19916;-74
2022/02/03 23:44:16;;;;;;;;;;;;;;;;;;5095073;28;19916;-73
2022/02/03 23:47:04;;;;;;;;;;;;;;;;;;5094062;28;19919;-76
2022/02/03 23:52:25;;;;;;;;;;;;;;;;;;5095157;28;20332;-74
